createdAt,value
2019-04-21T00:00:45.549Z,5.50
2019-04-21T00:03:19.360Z,5.40
2019-04-21T00:06:03.295Z,5.50
2019-04-21T00:08:45.850Z,5.40
2019-04-21T00:11:02.954Z,5.30
2019-04-21T00:13:20.731Z,5.30
2019-04-21T00:15:40.674Z,5.30
2019-04-21T00:18:07.140Z,5.30
2019-04-21T00:20:39.661Z,5.30
2019-04-21T00:23:19.520Z,5.30
2019-04-21T00:25:44.532Z,5.30
2019-04-21T00:28:25.191Z,5.30
2019-04-21T00:30:45.647Z,5.20
2019-04-21T00:33:05.209Z,5.20
2019-04-21T00:35:27.443Z,5.20
2019-04-21T00:38:13.655Z,5.30
2019-04-21T00:40:41.784Z,5.30
2019-04-21T00:43:11.742Z,5.30
2019-04-21T00:45:31.501Z,5.40
2019-04-21T00:48:12.981Z,5.30
2019-04-21T00:50:40.575Z,5.40
2019-04-21T00:53:05.494Z,5.20
2019-04-21T00:55:38.618Z,5.10
2019-04-21T00:58:03.730Z,5.10
2019-04-21T01:00:36.404Z,5.00
2019-04-21T01:03:04.961Z,4.90
2019-04-21T01:05:27.133Z,5.00
2019-04-21T01:07:59.383Z,5.10
2019-04-21T01:10:20.806Z,4.90
2019-04-21T01:12:58.913Z,4.80
2019-04-21T01:15:31.093Z,4.80
2019-04-21T01:18:01.499Z,4.80
2019-04-21T01:20:15.998Z,4.70
2019-04-21T01:22:34.511Z,4.70
2019-04-21T01:25:12.141Z,4.70
2019-04-21T01:27:50.759Z,4.70
2019-04-21T01:30:19.291Z,4.70
2019-04-21T01:32:48.370Z,4.80
2019-04-21T01:35:16.414Z,4.70
2019-04-21T01:37:49.534Z,4.80
2019-04-21T01:40:16.848Z,4.80
2019-04-21T01:42:45.951Z,5.00
2019-04-21T01:45:11.385Z,5.00
2019-04-21T01:47:36.157Z,4.90
2019-04-21T01:49:56.551Z,4.90
2019-04-21T01:52:44.129Z,4.70
2019-04-21T01:55:06.392Z,4.70
2019-04-21T01:57:33.317Z,4.70
2019-04-21T01:59:54.919Z,4.80
2019-04-21T02:02:32.597Z,4.80
2019-04-21T02:05:04.372Z,4.90
2019-04-21T02:07:27.505Z,4.90
2019-04-21T02:09:59.362Z,4.80
2019-04-21T02:12:30.251Z,4.60
2019-04-21T02:14:58.821Z,4.50
2019-04-21T02:17:23.929Z,4.50
2019-04-21T02:19:45.840Z,4.50
2019-04-21T02:22:25.863Z,4.50
2019-04-21T02:25:08.603Z,4.40
2019-04-21T02:27:19.217Z,4.30
2019-04-21T02:29:47.133Z,4.40
2019-04-21T02:37:36.764Z,4.30
2019-04-21T02:39:57.649Z,4.40
2019-04-21T02:44:52.073Z,4.40
2019-04-21T02:47:21.196Z,4.30
2019-04-21T02:49:56.097Z,4.30
2019-04-21T02:59:47.898Z,4.20
2019-04-21T03:02:25.026Z,4.20
2019-04-21T03:04:42.563Z,4.30
2019-04-21T03:07:13.510Z,4.20
2019-04-21T03:17:10.106Z,4.10
2019-04-21T03:22:05.183Z,4.20
2019-04-21T03:24:50.109Z,4.00
2019-04-21T03:27:12.146Z,4.00
2019-04-21T03:29:44.460Z,4.00
2019-04-21T03:32:14.354Z,3.90
2019-04-21T03:34:41.822Z,3.90
2019-04-21T03:37:14.024Z,3.90
2019-04-21T03:39:29.508Z,3.90
2019-04-21T03:41:59.772Z,3.90
2019-04-21T03:46:53.076Z,3.90
2019-04-21T03:49:27.973Z,3.80
2019-04-21T03:51:48.659Z,3.80
2019-04-21T03:54:18.162Z,3.80
2019-04-21T03:59:03.699Z,3.90
2019-04-21T04:01:44.507Z,3.80
2019-04-21T04:04:22.378Z,3.80
2019-04-21T04:14:14.105Z,3.80
2019-04-21T04:16:37.852Z,4.00
2019-04-21T04:18:57.917Z,4.10
2019-04-21T04:21:48.030Z,4.20
2019-04-21T04:26:39.342Z,3.90
2019-04-21T04:28:54.248Z,3.90
2019-04-21T04:31:35.375Z,3.90
2019-04-21T04:33:55.620Z,3.90
2019-04-21T04:39:01.381Z,3.90
2019-04-21T04:43:49.777Z,4.10
2019-04-21T04:46:18.420Z,4.00
2019-04-21T04:48:41.972Z,4.00
2019-04-21T04:51:33.368Z,4.00
2019-04-21T05:01:14.185Z,4.20
2019-04-21T05:03:43.959Z,4.20
2019-04-21T05:09:04.198Z,4.30
2019-04-21T05:11:30.497Z,4.30
2019-04-21T05:13:54.984Z,4.30
2019-04-21T05:16:25.640Z,4.30
2019-04-21T05:18:52.869Z,4.20
2019-04-21T05:21:24.828Z,4.20
2019-04-21T05:23:41.276Z,4.30
2019-04-21T05:26:01.308Z,4.40
2019-04-21T05:28:28.519Z,4.40
2019-04-21T05:31:06.254Z,4.40
2019-04-21T05:33:38.090Z,4.60
2019-04-21T05:35:56.815Z,4.60
2019-04-21T05:38:30.384Z,4.60
2019-04-21T05:40:48.357Z,4.60
2019-04-21T05:43:28.104Z,4.70
2019-04-21T05:46:02.608Z,4.70
2019-04-21T05:50:49.829Z,4.90
2019-04-21T05:53:26.702Z,5.00
2019-04-21T05:55:58.402Z,5.10
2019-04-21T05:58:11.590Z,5.20
2019-04-21T06:01:15.087Z,5.40
2019-04-21T06:03:29.619Z,5.40
2019-04-21T06:06:03.395Z,5.60
2019-04-21T06:08:17.929Z,5.70
2019-04-21T06:10:53.898Z,5.80
2019-04-21T06:15:49.999Z,6.00
2019-04-21T06:18:25.981Z,6.10
2019-04-21T06:20:51.567Z,6.20
2019-04-21T06:23:12.065Z,6.30
2019-04-21T06:25:54.623Z,6.40
2019-04-21T06:28:11.987Z,6.50
2019-04-21T06:32:59.514Z,6.60
2019-04-21T06:35:54.160Z,6.70
2019-04-21T06:38:03.735Z,6.70
2019-04-21T06:40:36.901Z,6.80
2019-04-21T06:43:15.791Z,6.80
2019-04-21T06:45:36.676Z,6.90
2019-04-21T06:48:08.809Z,6.90
2019-04-21T06:50:37.716Z,7.00
2019-04-21T06:53:20.767Z,7.00
2019-04-21T06:55:27.836Z,7.10
2019-04-21T06:57:58.236Z,7.10
2019-04-21T07:00:31.581Z,7.10
2019-04-21T07:03:11.514Z,7.20
2019-04-21T07:05:38.802Z,7.20
2019-04-21T07:08:14.788Z,7.30
2019-04-21T07:10:30.749Z,7.30
2019-04-21T07:12:52.844Z,7.30
2019-04-21T07:15:30.799Z,7.40
2019-04-21T07:17:59.910Z,7.40
2019-04-21T07:20:21.923Z,7.40
2019-04-21T07:22:54.239Z,7.40
2019-04-21T07:25:26.395Z,7.50
2019-04-21T07:27:52.366Z,7.50
2019-04-21T07:30:21.215Z,7.50
2019-04-21T07:35:17.837Z,7.60
2019-04-21T07:37:52.337Z,7.70
2019-04-21T07:40:09.322Z,7.80
2019-04-21T07:42:40.099Z,7.80
2019-04-21T07:45:04.625Z,7.90
2019-04-21T07:47:42.545Z,8.00
2019-04-21T07:50:08.847Z,8.10
2019-04-21T07:52:55.131Z,8.20
2019-04-21T07:55:18.656Z,8.30
2019-04-21T07:57:31.827Z,8.30
2019-04-21T08:00:16.084Z,8.40
2019-04-21T08:02:29.530Z,8.50
2019-04-21T08:05:05.586Z,8.60
2019-04-21T08:07:30.799Z,8.70
2019-04-21T08:09:51.346Z,8.80
2019-04-21T08:12:20.379Z,8.90
2019-04-21T08:14:50.716Z,9.00
2019-04-21T08:17:16.165Z,9.10
2019-04-21T08:19:43.025Z,9.30
2019-04-21T08:22:18.575Z,9.30
2019-04-21T08:24:50.853Z,9.50
2019-04-21T08:27:18.960Z,9.60
2019-04-21T08:29:45.981Z,9.60
2019-04-21T08:32:19.908Z,9.80
2019-04-21T08:34:49.628Z,9.80
2019-04-21T08:37:15.154Z,9.90
2019-04-21T08:39:53.539Z,10.10
2019-04-21T08:42:03.326Z,10.30
2019-04-21T08:47:07.895Z,10.50
2019-04-21T08:49:35.100Z,10.60
2019-04-21T08:52:16.760Z,10.70
2019-04-21T08:54:29.165Z,10.70
2019-04-21T08:57:01.444Z,10.80
2019-04-21T08:59:31.393Z,10.80
2019-04-21T09:01:55.472Z,10.90
2019-04-21T09:04:24.542Z,10.90
2019-04-21T09:09:23.721Z,11.10
2019-04-21T09:11:50.977Z,11.10
2019-04-21T09:14:21.103Z,11.30
2019-04-21T09:16:44.339Z,11.30
2019-04-21T09:19:20.302Z,11.40
2019-04-21T09:21:43.639Z,11.50
2019-04-21T09:24:14.754Z,11.50
2019-04-21T09:26:36.973Z,11.60
2019-04-21T09:29:03.415Z,11.70
2019-04-21T09:31:24.097Z,11.70
2019-04-21T09:33:50.833Z,11.80
2019-04-21T09:36:20.146Z,11.90
2019-04-21T09:38:50.733Z,12.00
2019-04-21T09:41:18.469Z,12.20
2019-04-21T09:43:46.858Z,12.20
2019-04-21T09:46:11.653Z,12.30
2019-04-21T09:48:50.075Z,12.40
2019-04-21T09:51:07.189Z,12.40
2019-04-21T09:53:38.003Z,12.50
2019-04-21T09:56:05.452Z,12.60
2019-04-21T09:58:38.464Z,12.70
2019-04-21T10:01:09.163Z,12.70
2019-04-21T10:03:39.638Z,12.70
2019-04-21T10:05:59.020Z,12.90
2019-04-21T10:08:27.183Z,13.00
2019-04-21T10:10:54.690Z,12.90
2019-04-21T10:13:23.330Z,13.10
2019-04-21T10:15:56.373Z,13.10
2019-04-21T10:18:29.364Z,13.20
2019-04-21T10:21:01.545Z,13.30
2019-04-21T10:23:39.454Z,13.50
2019-04-21T10:26:12.683Z,13.60
2019-04-21T10:28:48.944Z,13.80
2019-04-21T10:31:20.827Z,13.90
2019-04-21T10:33:48.430Z,14.10
2019-04-21T10:36:15.354Z,14.20
2019-04-21T10:38:46.480Z,14.30
2019-04-21T10:41:11.821Z,14.50
2019-04-21T10:43:38.668Z,14.60
2019-04-21T10:46:06.604Z,14.80
2019-04-21T10:48:35.060Z,14.90
2019-04-21T10:51:03.148Z,15.10
2019-04-21T10:53:31.199Z,15.30
2019-04-21T10:56:11.474Z,15.40
2019-04-21T10:58:26.726Z,15.50
2019-04-21T11:00:54.168Z,15.80
2019-04-21T11:03:22.744Z,16.00
2019-04-21T11:05:50.516Z,16.30
2019-04-21T11:08:23.627Z,16.70
2019-04-21T11:10:45.858Z,17.20
2019-04-21T11:13:12.741Z,17.80
2019-04-21T11:15:39.492Z,18.20
2019-04-21T11:18:06.261Z,18.70
2019-04-21T11:20:33.166Z,19.00
2019-04-21T11:22:59.924Z,19.40
2019-04-21T11:25:26.665Z,19.50
2019-04-21T11:27:53.438Z,19.80
2019-04-21T11:30:20.180Z,20.10
2019-04-21T11:32:48.239Z,20.20
2019-04-21T11:35:15.631Z,20.20
2019-04-21T11:37:44.067Z,20.30
2019-04-21T11:40:14.951Z,20.30
2019-04-21T11:42:39.906Z,20.50
2019-04-21T11:45:08.362Z,20.60
2019-04-21T11:47:36.304Z,20.40
2019-04-21T11:50:05.337Z,20.70
2019-04-21T11:52:32.635Z,20.90
2019-04-21T11:55:00.478Z,20.90
2019-04-21T11:57:30.754Z,20.90
2019-04-21T11:59:56.001Z,20.60
2019-04-21T12:02:23.565Z,20.70
2019-04-21T12:04:51.553Z,20.80
2019-04-21T12:07:19.610Z,21.00
2019-04-21T12:09:47.795Z,21.00
2019-04-21T12:12:15.069Z,20.40
2019-04-21T12:14:41.935Z,20.10
2019-04-21T12:17:09.767Z,20.10
2019-04-21T12:19:36.853Z,20.20
2019-04-21T12:22:11.266Z,20.20
2019-04-21T12:24:33.396Z,20.40
2019-04-21T12:27:02.163Z,20.60
2019-04-21T12:29:30.563Z,20.80
2019-04-21T12:31:57.466Z,20.90
2019-04-21T12:34:24.184Z,21.00
2019-04-21T12:36:50.919Z,21.30
2019-04-21T12:39:18.761Z,21.10
2019-04-21T12:41:46.677Z,20.70
2019-04-21T12:44:13.423Z,20.90
2019-04-21T12:46:40.340Z,21.10
2019-04-21T12:49:07.634Z,21.10
2019-04-21T12:51:35.592Z,21.10
2019-04-21T12:54:03.782Z,21.40
2019-04-21T12:56:31.806Z,21.60
2019-04-21T12:58:59.544Z,21.80
2019-04-21T13:01:27.367Z,21.90
2019-04-21T13:03:55.471Z,22.00
2019-04-21T13:06:23.420Z,22.00
2019-04-21T13:08:58.947Z,22.10
2019-04-21T13:11:19.194Z,22.00
2019-04-21T13:13:46.118Z,22.10
2019-04-21T13:16:13.654Z,22.10
2019-04-21T13:18:41.664Z,22.20
2019-04-21T13:21:09.883Z,22.30
2019-04-21T13:23:37.037Z,22.30
2019-04-21T13:26:04.944Z,22.40
2019-04-21T13:28:32.828Z,22.50
2019-04-21T13:31:00.190Z,22.50
2019-04-21T13:33:27.229Z,22.70
2019-04-21T13:35:55.146Z,22.80
2019-04-21T13:38:30.076Z,22.90
2019-04-21T13:41:04.870Z,22.90
2019-04-21T13:43:20.947Z,23.20
2019-04-21T13:45:47.981Z,23.20
2019-04-21T13:48:14.840Z,23.30
2019-04-21T13:50:41.817Z,23.40
2019-04-21T13:53:09.048Z,23.50
2019-04-21T13:55:37.074Z,23.50
2019-04-21T13:58:04.410Z,23.60
2019-04-21T14:00:31.804Z,23.70
2019-04-21T14:02:58.847Z,23.60
2019-04-21T14:05:26.521Z,23.50
2019-04-21T14:07:54.433Z,23.60
2019-04-21T14:10:21.848Z,23.60
2019-04-21T14:12:48.996Z,23.60
2019-04-21T14:15:20.126Z,23.70
2019-04-21T14:17:47.131Z,23.50
2019-04-21T14:20:15.222Z,23.80
2019-04-21T14:22:42.218Z,23.80
2019-04-21T14:25:09.969Z,23.80
2019-04-21T14:27:36.711Z,23.90
2019-04-21T14:30:08.365Z,24.10
2019-04-21T14:32:35.993Z,24.20
2019-04-21T14:35:06.932Z,24.00
2019-04-21T14:37:36.352Z,24.20
2019-04-21T14:40:13.646Z,24.30
2019-04-21T14:42:48.341Z,24.20
2019-04-21T14:45:20.878Z,24.20
2019-04-21T14:47:53.942Z,24.30
2019-04-21T14:50:26.498Z,24.40
2019-04-21T14:53:01.978Z,24.40
2019-04-21T14:58:33.395Z,24.50
2019-04-21T15:01:10.397Z,24.40
2019-04-21T15:03:41.976Z,24.60
2019-04-21T15:06:17.121Z,24.40
2019-04-21T15:08:57.969Z,24.40
2019-04-21T15:11:27.448Z,24.30
2019-04-21T15:13:59.758Z,24.50
2019-04-21T15:16:31.486Z,24.30
2019-04-21T15:19:04.288Z,24.20
2019-04-21T15:21:40.508Z,24.10
2019-04-21T15:24:08.567Z,24.00
2019-04-21T15:26:35.959Z,24.00
2019-04-21T15:29:03.057Z,24.00
2019-04-21T15:31:34.797Z,24.10
2019-04-21T15:33:59.111Z,24.20
2019-04-21T15:36:27.255Z,24.20
2019-04-21T15:38:54.166Z,24.20
2019-04-21T15:41:20.938Z,24.10
2019-04-21T15:43:48.836Z,24.00
2019-04-21T15:46:15.661Z,24.10
2019-04-21T15:48:42.415Z,23.70
2019-04-21T15:51:10.892Z,23.20
2019-04-21T15:53:37.755Z,23.00
2019-04-21T15:56:04.713Z,22.50
2019-04-21T15:58:32.432Z,22.40
2019-04-21T16:01:00.583Z,22.10
2019-04-21T16:03:28.932Z,21.80
2019-04-21T16:05:55.918Z,21.50
2019-04-21T16:08:22.671Z,21.40
2019-04-21T16:10:56.210Z,21.20
2019-04-21T16:13:19.359Z,21.10
2019-04-21T16:15:46.361Z,20.70
2019-04-21T16:18:14.183Z,20.50
2019-04-21T16:20:41.864Z,20.30
2019-04-21T16:23:08.725Z,20.00
2019-04-21T16:25:36.814Z,19.80
2019-04-21T16:28:05.612Z,19.50
2019-04-21T16:30:32.375Z,19.30
2019-04-21T16:32:59.886Z,19.10
2019-04-21T16:35:26.848Z,19.10
2019-04-21T16:37:56.871Z,18.80
2019-04-21T16:40:23.418Z,18.70
2019-04-21T16:42:50.273Z,18.50
2019-04-21T16:45:18.905Z,18.20
2019-04-21T16:47:47.480Z,18.20
2019-04-21T16:50:16.757Z,18.10
2019-04-21T16:52:43.788Z,17.90
2019-04-21T16:55:10.921Z,17.80
2019-04-21T16:57:37.802Z,17.70
2019-04-21T17:00:08.710Z,17.70
2019-04-21T17:02:36.722Z,17.60
2019-04-21T17:05:06.690Z,17.40
2019-04-21T17:07:33.667Z,17.40
2019-04-21T17:10:00.446Z,17.20
2019-04-21T17:12:28.799Z,17.10
2019-04-21T17:15:10.732Z,17.10
2019-04-21T17:17:45.870Z,16.90
2019-04-21T17:19:55.923Z,16.80
2019-04-21T17:22:21.904Z,16.70
2019-04-21T17:24:48.624Z,16.60
2019-04-21T17:27:15.486Z,16.60
2019-04-21T17:29:43.046Z,16.50
2019-04-21T17:32:09.922Z,16.40
2019-04-21T17:34:37.969Z,16.30
2019-04-21T17:37:05.538Z,16.20
2019-04-21T17:39:32.351Z,16.10
2019-04-21T17:42:11.755Z,16.00
2019-04-21T17:44:27.880Z,15.80
2019-04-21T17:47:01.535Z,15.70
2019-04-21T17:49:23.514Z,15.70
2019-04-21T17:51:55.641Z,15.60
2019-04-21T17:54:27.582Z,15.50
2019-04-21T17:57:13.689Z,15.50
2019-04-21T17:59:45.063Z,15.40
2019-04-21T18:02:03.933Z,15.30
2019-04-21T18:04:31.814Z,15.20
2019-04-21T18:07:05.098Z,15.00
2019-04-21T18:09:44.060Z,14.90
2019-04-21T18:12:07.547Z,14.80
2019-04-21T18:14:21.328Z,14.80
2019-04-21T18:16:48.641Z,14.80
2019-04-21T18:19:27.882Z,14.60
2019-04-21T18:21:56.044Z,14.50
2019-04-21T18:24:22.576Z,14.50
2019-04-21T18:26:54.390Z,14.40
2019-04-21T18:29:16.229Z,14.40
2019-04-21T18:31:48.314Z,14.30
2019-04-21T18:34:16.287Z,14.40
2019-04-21T18:36:45.492Z,14.20
2019-04-21T18:39:21.615Z,14.10
2019-04-21T18:41:42.685Z,14.00
2019-04-21T18:47:02.623Z,13.80
2019-04-21T18:49:06.254Z,13.70
2019-04-21T18:51:40.288Z,13.70
2019-04-21T18:54:20.960Z,13.70
2019-04-21T18:56:31.489Z,13.60
2019-04-21T18:58:58.446Z,13.50
2019-04-21T19:01:29.340Z,13.40
2019-04-21T19:03:56.012Z,13.40
2019-04-21T19:06:43.901Z,13.30
2019-04-21T19:09:11.594Z,13.30
2019-04-21T19:11:35.908Z,13.30
2019-04-21T19:17:02.617Z,13.10
2019-04-21T19:19:22.643Z,13.10
2019-04-21T19:21:31.149Z,13.00
2019-04-21T19:24:10.733Z,13.00
2019-04-21T19:26:38.030Z,13.00
2019-04-21T19:29:02.488Z,12.90
2019-04-21T19:31:31.559Z,12.80
2019-04-21T19:33:48.104Z,12.80
2019-04-21T19:36:07.523Z,12.80
2019-04-21T19:38:45.702Z,12.80
2019-04-21T19:41:20.462Z,12.80
2019-04-21T19:43:56.335Z,12.70
2019-04-21T19:46:18.108Z,12.60
2019-04-21T19:48:56.679Z,12.60
2019-04-21T19:51:15.475Z,12.60
2019-04-21T19:53:42.138Z,12.50
2019-04-21T19:55:56.190Z,12.50
2019-04-21T19:58:28.890Z,12.50
2019-04-21T20:00:55.546Z,12.50
2019-04-21T20:03:20.946Z,12.40
2019-04-21T20:05:59.350Z,12.30
2019-04-21T20:08:31.957Z,12.30
2019-04-21T20:11:05.286Z,12.30
2019-04-21T20:13:50.879Z,12.20
2019-04-21T20:16:03.915Z,12.20
2019-04-21T20:18:20.930Z,12.30
2019-04-21T20:20:41.121Z,12.20
2019-04-21T20:23:13.165Z,12.10
2019-04-21T20:25:45.943Z,12.20
2019-04-21T20:28:14.767Z,12.20
2019-04-21T20:30:49.023Z,12.10
2019-04-21T20:33:42.921Z,12.10
2019-04-21T20:35:55.825Z,12.10
2019-04-21T20:38:12.551Z,12.10
2019-04-21T20:40:39.975Z,12.10
2019-04-21T20:43:17.686Z,12.10
2019-04-21T20:45:48.330Z,11.90
2019-04-21T20:47:55.770Z,11.90
2019-04-21T20:50:33.483Z,11.80
2019-04-21T20:53:11.310Z,11.80
2019-04-21T20:55:29.709Z,11.70
2019-04-21T20:57:58.028Z,11.60
2019-04-21T21:00:45.197Z,11.60
2019-04-21T21:03:07.123Z,11.50
2019-04-21T21:05:28.405Z,11.50
2019-04-21T21:08:05.955Z,11.50
2019-04-21T21:10:25.137Z,11.40
2019-04-21T21:13:06.328Z,11.40
2019-04-21T21:15:25.942Z,11.40
2019-04-21T21:17:59.862Z,11.30
2019-04-21T21:20:33.528Z,11.30
2019-04-21T21:22:50.669Z,11.20
2019-04-21T21:25:38.315Z,11.20
2019-04-21T21:27:48.476Z,11.20
2019-04-21T21:30:21.611Z,11.20
2019-04-21T21:32:58.712Z,11.10
2019-04-21T21:35:19.249Z,11.10
2019-04-21T21:37:54.923Z,11.00
2019-04-21T21:40:21.817Z,11.00
2019-04-21T21:42:37.511Z,11.00
2019-04-21T21:45:08.355Z,11.00
2019-04-21T21:47:47.523Z,10.90
2019-04-21T21:50:07.329Z,10.90
2019-04-21T21:52:42.383Z,10.90
2019-04-21T21:54:55.984Z,10.90
2019-04-21T21:57:23.029Z,10.80
2019-04-21T21:59:54.332Z,10.80
2019-04-21T22:02:29.315Z,10.70
2019-04-21T22:04:58.254Z,10.80
2019-04-21T22:07:17.809Z,10.80
2019-04-21T22:09:44.342Z,10.90
2019-04-21T22:12:12.380Z,10.90
2019-04-21T22:14:44.883Z,10.80
2019-04-21T22:17:27.463Z,10.90
2019-04-21T22:20:06.092Z,10.70
2019-04-21T22:22:17.963Z,10.60
2019-04-21T22:24:46.472Z,10.60
2019-04-21T22:27:03.178Z,10.70
2019-04-21T22:29:38.139Z,10.60
2019-04-21T22:32:05.479Z,10.60
2019-04-21T22:34:32.702Z,10.60
2019-04-21T22:37:07.095Z,10.60
2019-04-21T22:39:43.433Z,10.50
2019-04-21T22:42:01.730Z,10.50
2019-04-21T22:44:22.728Z,10.50
2019-04-21T22:46:58.588Z,10.40
2019-04-21T22:49:19.713Z,10.40
2019-04-21T22:51:49.750Z,10.30
2019-04-21T22:54:20.779Z,10.30
2019-04-21T22:56:53.015Z,10.30
2019-04-21T22:59:18.655Z,10.30
2019-04-21T23:01:45.084Z,10.30
2019-04-21T23:04:10.715Z,10.30
2019-04-21T23:06:39.596Z,10.10
2019-04-21T23:09:08.795Z,9.80
2019-04-21T23:11:41.628Z,9.80
2019-04-21T23:14:08.100Z,9.80
2019-04-21T23:16:37.820Z,9.80
2019-04-21T23:19:21.991Z,9.70
2019-04-21T23:21:55.356Z,9.60
2019-04-21T23:24:14.823Z,9.70
2019-04-21T23:26:41.947Z,9.80
2019-04-21T23:29:17.338Z,9.60
2019-04-21T23:31:53.719Z,9.70
2019-04-21T23:33:58.134Z,9.60
2019-04-21T23:36:29.686Z,9.70
2019-04-21T23:38:55.393Z,9.70
2019-04-21T23:41:25.984Z,9.80
2019-04-21T23:43:57.613Z,9.60
2019-04-21T23:46:25.843Z,9.50
2019-04-21T23:49:01.701Z,9.40
2019-04-21T23:51:33.054Z,9.20
2019-04-21T23:53:45.034Z,9.20
2019-04-21T23:56:15.761Z,9.20
2019-04-21T23:58:40.398Z,9.20
